createdAt,value
2017-08-17T00:00:53.008Z,0
2017-08-17T00:02:01.093Z,0
2017-08-17T00:03:09.179Z,0
2017-08-17T00:04:17.268Z,0
2017-08-17T00:05:29.012Z,0
2017-08-17T00:06:33.447Z,0
2017-08-17T00:07:41.534Z,0
2017-08-17T00:08:49.622Z,0
2017-08-17T00:09:57.712Z,0
2017-08-17T00:11:05.801Z,0
2017-08-17T00:12:13.901Z,0
2017-08-17T00:13:21.985Z,0
2017-08-17T00:14:30.076Z,0
2017-08-17T00:15:38.166Z,0
2017-08-17T00:16:46.258Z,0
2017-08-17T00:17:54.344Z,0
2017-08-17T00:19:02.432Z,0
2017-08-17T00:20:10.520Z,0
2017-08-17T00:21:18.605Z,0
2017-08-17T00:22:26.703Z,0
2017-08-17T00:23:34.803Z,0
2017-08-17T00:24:42.873Z,0
2017-08-17T00:25:50.960Z,0
2017-08-17T00:26:59.062Z,0
2017-08-17T00:28:07.139Z,0
2017-08-17T00:29:15.229Z,0
2017-08-17T00:30:23.316Z,0
2017-08-17T00:31:31.403Z,0
2017-08-17T00:32:39.492Z,0
2017-08-17T00:33:47.581Z,0
2017-08-17T00:34:55.667Z,0
2017-08-17T00:36:03.755Z,0
2017-08-17T00:37:11.850Z,0
2017-08-17T00:38:19.934Z,0
2017-08-17T00:39:28.032Z,0
2017-08-17T00:40:36.109Z,0
2017-08-17T00:41:44.196Z,0
2017-08-17T00:42:52.298Z,0
2017-08-17T00:44:00.375Z,0
2017-08-17T00:45:08.461Z,0
2017-08-17T00:46:16.549Z,0
2017-08-17T00:47:24.641Z,0
2017-08-17T00:48:32.732Z,0
2017-08-17T00:49:40.818Z,0
2017-08-17T00:50:48.905Z,0
2017-08-17T00:51:56.991Z,0
2017-08-17T00:53:05.081Z,0
2017-08-17T00:54:13.196Z,0
2017-08-17T00:55:21.262Z,0
2017-08-17T00:56:29.343Z,0
2017-08-17T00:57:37.433Z,0
2017-08-17T00:58:45.522Z,0
2017-08-17T00:59:53.609Z,0
2017-08-17T01:01:01.697Z,0
2017-08-17T01:02:09.784Z,0
2017-08-17T01:03:17.874Z,0
2017-08-17T01:04:26.053Z,0
2017-08-17T01:05:34.051Z,0
2017-08-17T01:06:42.139Z,0
2017-08-17T01:07:50.228Z,0
2017-08-17T01:08:58.321Z,0
2017-08-17T01:10:06.427Z,0
2017-08-17T01:11:14.490Z,0
2017-08-17T01:12:22.577Z,0
2017-08-17T01:13:30.672Z,0
2017-08-17T01:14:38.784Z,0
2017-08-17T01:15:46.851Z,0
2017-08-17T01:16:54.940Z,0
2017-08-17T01:18:03.019Z,0
2017-08-17T01:19:11.109Z,0
2017-08-17T01:20:19.195Z,0
2017-08-17T01:21:27.286Z,0
2017-08-17T01:22:35.375Z,0
2017-08-17T01:23:43.459Z,0
2017-08-17T01:24:51.546Z,0
2017-08-17T01:25:59.638Z,0
2017-08-17T01:27:07.804Z,0
2017-08-17T01:28:16.156Z,0
2017-08-17T01:29:23.902Z,0
2017-08-17T01:30:31.987Z,0
2017-08-17T01:31:40.094Z,0
2017-08-17T01:32:48.166Z,0
2017-08-17T01:33:56.252Z,0
2017-08-17T01:35:04.380Z,0
2017-08-17T01:36:12.432Z,0
2017-08-17T01:37:20.517Z,0
2017-08-17T01:38:28.605Z,0
2017-08-17T01:39:36.693Z,0
2017-08-17T01:40:44.781Z,0
2017-08-17T01:41:52.869Z,0
2017-08-17T01:43:00.965Z,0
2017-08-17T01:44:09.053Z,0
2017-08-17T01:45:17.144Z,0
2017-08-17T01:46:25.230Z,0
2017-08-17T01:47:33.326Z,0
2017-08-17T01:48:41.407Z,0
2017-08-17T01:49:49.495Z,0
2017-08-17T01:50:57.583Z,0
2017-08-17T01:52:05.690Z,0
2017-08-17T01:53:13.761Z,0
2017-08-17T01:54:21.844Z,0
2017-08-17T01:55:29.943Z,0
2017-08-17T01:56:38.023Z,0
2017-08-17T01:57:46.110Z,0
2017-08-17T01:58:54.197Z,0
2017-08-17T02:00:02.285Z,0
2017-08-17T02:01:10.374Z,0
2017-08-17T02:02:18.460Z,0
2017-08-17T02:03:26.550Z,0
2017-08-17T02:04:34.639Z,0
2017-08-17T02:05:42.725Z,0
2017-08-17T02:06:50.906Z,0
2017-08-17T02:07:58.903Z,0
2017-08-17T02:09:06.993Z,0
2017-08-17T02:10:15.086Z,0
2017-08-17T02:11:23.167Z,0
2017-08-17T02:12:31.254Z,0
2017-08-17T02:13:39.367Z,0
2017-08-17T02:14:47.431Z,0
2017-08-17T02:15:55.519Z,0
2017-08-17T02:17:03.612Z,0
2017-08-17T02:18:11.696Z,0
2017-08-17T02:19:19.905Z,0
2017-08-17T02:20:27.871Z,0
2017-08-17T02:21:35.954Z,0
2017-08-17T02:22:44.051Z,0
2017-08-17T02:23:52.140Z,0
2017-08-17T02:25:00.226Z,0
2017-08-17T02:26:08.318Z,0
2017-08-17T02:27:16.402Z,0
2017-08-17T02:28:24.489Z,0
2017-08-17T02:29:32.578Z,0
2017-08-17T02:30:40.666Z,0
2017-08-17T02:31:48.763Z,0
2017-08-17T02:32:56.843Z,0
2017-08-17T02:34:04.931Z,0
2017-08-17T02:35:13.019Z,0
2017-08-17T02:36:21.129Z,0
2017-08-17T02:37:29.193Z,0
2017-08-17T02:38:37.285Z,0
2017-08-17T02:39:45.368Z,0
2017-08-17T02:40:53.457Z,0
2017-08-17T02:42:01.544Z,0
2017-08-17T02:43:09.633Z,0
2017-08-17T02:44:17.725Z,0
2017-08-17T02:45:25.830Z,0
2017-08-17T02:46:33.897Z,0
2017-08-17T02:47:41.985Z,0
2017-08-17T02:48:50.084Z,0
2017-08-17T02:49:58.158Z,0
2017-08-17T02:51:06.269Z,0
2017-08-17T02:52:14.336Z,0
2017-08-17T02:53:22.425Z,0
2017-08-17T02:54:30.512Z,0
2017-08-17T02:55:38.601Z,0
2017-08-17T02:56:46.687Z,0
2017-08-17T02:57:54.773Z,0
2017-08-17T02:59:02.861Z,0
2017-08-17T03:00:10.951Z,0
2017-08-17T03:01:19.038Z,0
2017-08-17T03:02:27.126Z,0
2017-08-17T03:03:35.242Z,0
2017-08-17T03:04:43.302Z,0
2017-08-17T03:05:51.390Z,0
2017-08-17T03:06:59.476Z,0
2017-08-17T03:08:07.563Z,0
2017-08-17T03:09:15.650Z,0
2017-08-17T03:10:23.746Z,0
2017-08-17T03:11:31.837Z,0
2017-08-17T03:12:39.916Z,0
2017-08-17T03:13:48.004Z,0
2017-08-17T03:14:56.114Z,0
2017-08-17T03:16:04.180Z,0
2017-08-17T03:17:12.268Z,0
2017-08-17T03:18:20.354Z,0
2017-08-17T03:19:28.442Z,0
2017-08-17T03:20:36.530Z,0
2017-08-17T03:21:44.617Z,0
2017-08-17T03:22:52.706Z,0
2017-08-17T03:24:00.796Z,0
2017-08-17T03:25:08.905Z,0
2017-08-17T03:26:16.971Z,0
2017-08-17T03:27:25.059Z,0
2017-08-17T03:28:33.144Z,0
2017-08-17T03:29:41.233Z,0
2017-08-17T03:30:49.325Z,0
2017-08-17T03:31:57.409Z,0
2017-08-17T03:33:05.505Z,0
2017-08-17T03:34:13.586Z,0
2017-08-17T03:35:21.673Z,0
2017-08-17T03:36:29.761Z,0
2017-08-17T03:37:37.850Z,0
2017-08-17T03:38:45.935Z,0
2017-08-17T03:39:54.039Z,0
2017-08-17T03:41:02.119Z,0
2017-08-17T03:42:10.205Z,0
2017-08-17T03:44:26.385Z,0
2017-08-17T03:45:34.471Z,0
2017-08-17T03:46:42.571Z,0
2017-08-17T03:47:50.645Z,0
2017-08-17T03:48:58.744Z,0
2017-08-17T03:50:06.854Z,0
2017-08-17T03:51:14.919Z,0
2017-08-17T03:52:23.045Z,0
2017-08-17T03:53:31.136Z,0
2017-08-17T03:54:39.181Z,0
2017-08-17T03:55:47.300Z,0
2017-08-17T03:56:55.366Z,0
2017-08-17T03:58:03.455Z,0
2017-08-17T03:59:11.543Z,0
2017-08-17T04:00:19.640Z,0
2017-08-17T04:01:27.719Z,0
2017-08-17T04:02:35.806Z,0
2017-08-17T04:03:43.906Z,0
2017-08-17T04:04:52.006Z,0
2017-08-17T04:06:00.070Z,0
2017-08-17T04:07:08.158Z,0
2017-08-17T04:08:16.254Z,0
2017-08-17T04:09:24.351Z,0
2017-08-17T04:10:32.439Z,0
2017-08-17T04:11:40.530Z,0
2017-08-17T04:12:48.617Z,0
2017-08-17T04:13:56.706Z,0
2017-08-17T04:15:04.792Z,0
2017-08-17T04:16:12.884Z,0
2017-08-17T04:17:20.970Z,0
2017-08-17T04:18:29.053Z,0
2017-08-17T04:19:37.140Z,0
2017-08-17T04:20:45.230Z,0
2017-08-17T04:21:53.317Z,0
2017-08-17T04:23:01.406Z,0
2017-08-17T04:24:09.491Z,0
2017-08-17T04:25:17.581Z,0
2017-08-17T04:26:25.678Z,0
2017-08-17T04:27:33.756Z,0
2017-08-17T04:28:41.851Z,0
2017-08-17T04:29:49.931Z,0
2017-08-17T04:30:58.027Z,0
2017-08-17T04:32:06.106Z,0
2017-08-17T04:33:14.215Z,4
2017-08-17T04:34:22.290Z,0
2017-08-17T04:35:30.369Z,0
2017-08-17T04:36:38.455Z,0
2017-08-17T04:37:46.544Z,0
2017-08-17T04:38:54.631Z,0
2017-08-17T04:40:03.366Z,4
2017-08-17T04:41:10.808Z,0
2017-08-17T04:42:18.897Z,0
2017-08-17T04:43:26.990Z,0
2017-08-17T04:44:35.159Z,4
2017-08-17T04:45:43.184Z,4
2017-08-17T04:46:51.248Z,4
2017-08-17T04:47:59.334Z,0
2017-08-17T04:49:07.423Z,0
2017-08-17T04:50:15.509Z,0
2017-08-17T04:51:24.114Z,0
2017-08-17T04:52:31.683Z,0
2017-08-17T04:53:39.770Z,0
2017-08-17T04:54:47.861Z,0
2017-08-17T04:55:55.945Z,0
2017-08-17T04:57:04.033Z,0
2017-08-17T04:58:12.119Z,0
2017-08-17T04:59:20.208Z,4
2017-08-17T05:00:28.293Z,0
2017-08-17T05:01:36.550Z,0
2017-08-17T05:02:44.466Z,4
2017-08-17T05:03:52.554Z,0
2017-08-17T05:05:00.640Z,0
2017-08-17T05:06:08.728Z,4
2017-08-17T05:07:16.840Z,4
2017-08-17T05:08:24.928Z,0
2017-08-17T05:09:32.989Z,0
2017-08-17T05:10:41.105Z,4
2017-08-17T05:11:49.163Z,4
2017-08-17T05:12:57.250Z,4
2017-08-17T05:14:05.344Z,4
2017-08-17T05:15:13.421Z,4
2017-08-17T05:16:21.513Z,4
2017-08-17T05:17:29.599Z,0
2017-08-17T05:18:37.687Z,4
2017-08-17T05:19:45.773Z,4
2017-08-17T05:20:53.860Z,0
2017-08-17T05:22:01.945Z,4
2017-08-17T05:23:10.033Z,0
2017-08-17T05:24:18.122Z,0
2017-08-17T05:25:26.206Z,4
2017-08-17T05:26:34.301Z,4
2017-08-17T05:27:42.384Z,4
2017-08-17T05:28:50.469Z,0
2017-08-17T05:29:58.556Z,4
2017-08-17T05:31:06.641Z,4
2017-08-17T05:32:14.730Z,4
2017-08-17T05:33:22.836Z,8
2017-08-17T05:34:30.923Z,8
2017-08-17T05:35:38.990Z,4
2017-08-17T05:36:47.074Z,4
2017-08-17T05:37:55.171Z,4
2017-08-17T05:39:03.250Z,4
2017-08-17T05:40:11.336Z,4
2017-08-17T05:41:19.422Z,4
2017-08-17T05:42:27.515Z,4
2017-08-17T05:43:35.600Z,4
2017-08-17T05:44:43.686Z,4
2017-08-17T05:45:51.772Z,4
2017-08-17T05:46:59.882Z,4
2017-08-17T05:48:07.946Z,8
2017-08-17T05:49:16.037Z,8
2017-08-17T05:50:24.127Z,4
2017-08-17T05:51:32.208Z,8
2017-08-17T05:52:40.296Z,4
2017-08-17T05:53:48.384Z,4
2017-08-17T05:54:56.470Z,4
2017-08-17T05:56:04.555Z,4
2017-08-17T05:57:12.642Z,8
2017-08-17T05:58:20.729Z,8
2017-08-17T05:59:28.824Z,4
2017-08-17T06:00:36.920Z,4
2017-08-17T06:01:45.005Z,4
2017-08-17T06:02:53.086Z,8
2017-08-17T06:04:01.172Z,4
2017-08-17T06:05:09.257Z,4
2017-08-17T06:06:17.346Z,8
2017-08-17T06:07:25.433Z,4
2017-08-17T06:08:33.519Z,8
2017-08-17T06:09:41.606Z,4
2017-08-17T06:10:49.700Z,4
2017-08-17T06:11:57.790Z,4
2017-08-17T06:13:05.902Z,4
2017-08-17T06:14:13.964Z,4
2017-08-17T06:15:22.052Z,4
2017-08-17T06:16:30.145Z,8
2017-08-17T06:17:38.226Z,8
2017-08-17T06:18:46.316Z,8
2017-08-17T06:19:54.405Z,8
2017-08-17T06:21:02.489Z,8
2017-08-17T06:22:10.575Z,8
2017-08-17T06:23:18.657Z,8
2017-08-17T06:24:26.754Z,8
2017-08-17T06:25:34.841Z,8
2017-08-17T06:26:42.943Z,8
2017-08-17T06:27:51.020Z,8
2017-08-17T06:28:59.107Z,8
2017-08-17T06:30:07.195Z,8
2017-08-17T06:31:15.311Z,12
2017-08-17T06:32:23.377Z,8
2017-08-17T06:33:31.464Z,8
2017-08-17T06:34:39.551Z,8
2017-08-17T06:35:47.641Z,8
2017-08-17T06:36:55.728Z,8
2017-08-17T06:38:03.818Z,8
2017-08-17T06:39:11.909Z,8
2017-08-17T06:40:20.008Z,12
2017-08-17T06:41:28.072Z,8
2017-08-17T06:42:36.167Z,12
2017-08-17T06:43:44.245Z,8
2017-08-17T06:44:52.331Z,12
2017-08-17T06:46:00.419Z,8
2017-08-17T06:47:08.504Z,8
2017-08-17T06:48:16.592Z,8
2017-08-17T06:49:24.678Z,8
2017-08-17T06:50:32.766Z,8
2017-08-17T06:51:40.853Z,8
2017-08-17T06:52:48.940Z,8
2017-08-17T06:53:57.031Z,8
2017-08-17T06:55:05.119Z,8
2017-08-17T06:56:13.204Z,8
2017-08-17T06:57:21.295Z,12
2017-08-17T06:58:29.379Z,12
2017-08-17T06:59:37.468Z,16
2017-08-17T07:00:45.640Z,16
2017-08-17T07:01:53.637Z,16
2017-08-17T07:03:01.733Z,16
2017-08-17T07:04:09.813Z,20
2017-08-17T07:05:17.922Z,12
2017-08-17T07:06:25.998Z,12
2017-08-17T07:07:34.074Z,8
2017-08-17T07:08:42.169Z,12
2017-08-17T07:09:50.260Z,8
2017-08-17T07:10:58.341Z,8
2017-08-17T07:12:06.429Z,12
2017-08-17T07:13:14.516Z,16
2017-08-17T07:14:22.603Z,16
2017-08-17T07:15:30.691Z,12
2017-08-17T07:16:38.785Z,20
2017-08-17T07:17:46.875Z,8
2017-08-17T07:18:54.954Z,12
2017-08-17T07:20:03.041Z,8
2017-08-17T07:21:11.126Z,8
2017-08-17T07:22:19.212Z,20
2017-08-17T07:23:27.299Z,24
2017-08-17T07:24:35.387Z,20
2017-08-17T07:25:43.471Z,28
2017-08-17T07:26:51.560Z,28
2017-08-17T07:27:59.648Z,28
2017-08-17T07:29:07.736Z,16
2017-08-17T07:30:15.821Z,24
2017-08-17T07:31:23.909Z,20
2017-08-17T07:32:32.001Z,20
2017-08-17T07:33:40.083Z,20
2017-08-17T07:34:48.170Z,20
2017-08-17T07:35:56.258Z,16
2017-08-17T07:37:04.346Z,16
2017-08-17T07:38:12.432Z,20
2017-08-17T07:39:20.520Z,20
2017-08-17T07:40:28.607Z,16
2017-08-17T07:41:36.694Z,16
2017-08-17T07:42:44.779Z,16
2017-08-17T07:43:52.869Z,16
2017-08-17T07:45:00.951Z,16
2017-08-17T07:46:09.044Z,20
2017-08-17T07:47:17.165Z,20
2017-08-17T07:48:25.219Z,24
2017-08-17T07:49:33.306Z,28
2017-08-17T07:50:41.393Z,28
2017-08-17T07:51:49.479Z,28
2017-08-17T07:52:57.568Z,20
2017-08-17T07:54:05.675Z,24
2017-08-17T07:55:13.742Z,20
2017-08-17T07:56:21.857Z,20
2017-08-17T07:57:29.920Z,20
2017-08-17T07:58:38.007Z,20
2017-08-17T07:59:46.095Z,16
2017-08-17T08:00:54.182Z,28
2017-08-17T08:02:02.269Z,16
2017-08-17T08:03:10.360Z,28
2017-08-17T08:04:18.449Z,20
2017-08-17T08:05:26.532Z,28
2017-08-17T08:06:34.622Z,28
2017-08-17T08:07:42.711Z,32
2017-08-17T08:08:50.796Z,28
2017-08-17T08:09:58.930Z,32
2017-08-17T08:11:06.970Z,28
2017-08-17T08:12:15.057Z,28
2017-08-17T08:13:23.145Z,28
2017-08-17T08:14:31.236Z,32
2017-08-17T08:15:39.327Z,28
2017-08-17T08:16:47.417Z,28
2017-08-17T08:17:55.514Z,28
2017-08-17T08:19:03.600Z,28
2017-08-17T08:20:11.687Z,28
2017-08-17T08:21:19.775Z,28
2017-08-17T08:22:27.868Z,28
2017-08-17T08:23:35.952Z,24
2017-08-17T08:24:44.058Z,24
2017-08-17T08:25:52.129Z,28
2017-08-17T08:27:00.214Z,28
2017-08-17T08:28:08.328Z,24
2017-08-17T08:29:16.696Z,28
2017-08-17T08:30:24.479Z,24
2017-08-17T08:31:32.566Z,28
2017-08-17T08:32:40.654Z,24
2017-08-17T08:33:48.742Z,24
2017-08-17T08:34:56.841Z,24
2017-08-17T08:36:04.918Z,28
2017-08-17T08:37:13.015Z,24
2017-08-17T08:38:21.131Z,20
2017-08-17T08:39:29.179Z,24
2017-08-17T08:40:37.278Z,24
2017-08-17T08:41:45.355Z,24
2017-08-17T08:42:53.445Z,24
2017-08-17T08:44:01.534Z,20
2017-08-17T08:45:09.623Z,24
2017-08-17T08:46:17.796Z,20
2017-08-17T08:47:25.798Z,24
2017-08-17T08:48:33.920Z,24
2017-08-17T08:49:41.977Z,24
2017-08-17T08:50:50.072Z,24
2017-08-17T08:51:58.152Z,24
2017-08-17T08:53:06.240Z,20
2017-08-17T08:54:14.331Z,20
2017-08-17T08:55:22.418Z,24
2017-08-17T08:56:30.504Z,24
2017-08-17T08:57:38.592Z,20
2017-08-17T08:58:46.681Z,24
2017-08-17T08:59:54.770Z,24
2017-08-17T09:01:02.859Z,24
2017-08-17T09:02:10.947Z,24
2017-08-17T09:03:19.034Z,20
2017-08-17T09:04:27.124Z,24
2017-08-17T09:05:35.212Z,24
2017-08-17T09:06:43.300Z,24
2017-08-17T09:07:51.390Z,24
2017-08-17T09:08:59.478Z,20
2017-08-17T09:10:07.564Z,24
2017-08-17T09:11:15.653Z,24
2017-08-17T09:12:23.741Z,24
2017-08-17T09:13:31.832Z,24
2017-08-17T09:14:39.920Z,28
2017-08-17T09:15:48.008Z,24
2017-08-17T09:16:56.095Z,24
2017-08-17T09:18:04.185Z,20
2017-08-17T09:19:12.273Z,20
2017-08-17T09:20:20.363Z,20
2017-08-17T09:21:28.449Z,20
2017-08-17T09:22:36.538Z,20
2017-08-17T09:23:44.626Z,20
2017-08-17T09:24:52.715Z,20
2017-08-17T09:26:00.815Z,24
2017-08-17T09:27:08.891Z,24
2017-08-17T09:28:16.980Z,24
2017-08-17T09:29:25.073Z,24
2017-08-17T09:30:33.156Z,32
2017-08-17T09:31:41.247Z,32
2017-08-17T09:32:49.335Z,24
2017-08-17T09:33:57.427Z,20
2017-08-17T09:35:05.512Z,20
2017-08-17T09:36:13.601Z,24
2017-08-17T09:37:21.687Z,24
2017-08-17T09:38:29.779Z,24
2017-08-17T09:39:37.864Z,24
2017-08-17T09:40:45.974Z,20
2017-08-17T09:41:54.050Z,20
2017-08-17T09:43:02.132Z,24
2017-08-17T09:44:10.226Z,24
2017-08-17T09:45:18.308Z,24
2017-08-17T09:46:26.399Z,24
2017-08-17T09:47:34.491Z,28
2017-08-17T09:48:42.585Z,24
2017-08-17T09:49:50.676Z,28
2017-08-17T09:50:58.764Z,24
2017-08-17T09:52:06.847Z,28
2017-08-17T09:53:14.946Z,28
2017-08-17T09:54:23.023Z,28
2017-08-17T09:55:31.111Z,28
2017-08-17T09:56:39.200Z,28
2017-08-17T09:57:47.298Z,24
2017-08-17T09:58:55.390Z,28
2017-08-17T10:00:03.475Z,28
2017-08-17T10:01:11.566Z,28
2017-08-17T10:02:19.651Z,28
2017-08-17T10:03:27.763Z,32
2017-08-17T10:04:35.845Z,32
2017-08-17T10:05:43.925Z,32
2017-08-17T10:06:52.023Z,28
2017-08-17T10:08:00.102Z,24
2017-08-17T10:09:08.191Z,28
2017-08-17T10:10:16.284Z,28
2017-08-17T10:11:24.368Z,28
2017-08-17T10:12:32.458Z,20
2017-08-17T10:13:40.546Z,24
2017-08-17T10:14:48.636Z,16
2017-08-17T10:15:56.724Z,20
2017-08-17T10:17:04.815Z,28
2017-08-17T10:18:13.481Z,24
2017-08-17T10:19:20.991Z,24
2017-08-17T10:20:29.079Z,24
2017-08-17T10:21:37.167Z,36
2017-08-17T10:22:45.278Z,32
2017-08-17T10:23:53.344Z,36
2017-08-17T10:25:01.436Z,20
2017-08-17T10:26:09.523Z,20
2017-08-17T10:27:17.613Z,20
2017-08-17T10:28:25.702Z,20
2017-08-17T10:29:33.812Z,20
2017-08-17T10:30:41.882Z,24
2017-08-17T10:31:49.964Z,20
2017-08-17T10:32:58.054Z,20
2017-08-17T10:34:06.150Z,16
2017-08-17T10:35:14.233Z,16
2017-08-17T10:36:22.357Z,20
2017-08-17T10:37:30.411Z,20
2017-08-17T10:38:38.628Z,20
2017-08-17T10:39:46.590Z,28
2017-08-17T10:40:54.676Z,32
2017-08-17T10:42:02.767Z,28
2017-08-17T10:43:10.856Z,24
2017-08-17T10:44:18.944Z,24
2017-08-17T10:45:27.040Z,32
2017-08-17T10:46:35.125Z,32
2017-08-17T10:47:43.212Z,32
2017-08-17T10:48:51.329Z,28
2017-08-17T10:49:59.397Z,28
2017-08-17T10:51:07.483Z,24
2017-08-17T10:52:15.573Z,24
2017-08-17T10:53:23.662Z,28
2017-08-17T10:54:31.752Z,24
2017-08-17T10:55:39.840Z,24
2017-08-17T10:56:47.951Z,20
2017-08-17T10:57:56.016Z,20
2017-08-17T10:59:04.107Z,20
2017-08-17T11:00:12.204Z,20
2017-08-17T11:01:20.283Z,28
2017-08-17T11:02:28.373Z,32
2017-08-17T11:03:36.462Z,32
2017-08-17T11:04:44.552Z,32
2017-08-17T11:05:52.644Z,36
2017-08-17T11:07:00.731Z,36
2017-08-17T11:08:08.822Z,32
2017-08-17T11:09:16.906Z,32
2017-08-17T11:10:24.999Z,28
2017-08-17T11:11:33.086Z,28
2017-08-17T11:12:41.181Z,32
2017-08-17T11:13:49.277Z,20
2017-08-17T11:14:57.366Z,16
2017-08-17T11:16:05.463Z,28
2017-08-17T11:17:13.545Z,28
2017-08-17T11:18:21.630Z,28
2017-08-17T11:19:29.720Z,28
2017-08-17T11:20:37.834Z,24
2017-08-17T11:21:45.899Z,32
2017-08-17T11:22:54.001Z,28
2017-08-17T11:24:02.078Z,28
2017-08-17T11:25:10.165Z,28
2017-08-17T11:26:18.261Z,28
2017-08-17T11:27:26.349Z,24
2017-08-17T11:28:34.440Z,20
2017-08-17T11:29:42.529Z,20
2017-08-17T11:30:50.622Z,16
2017-08-17T11:31:58.709Z,28
2017-08-17T11:33:06.795Z,28
2017-08-17T11:34:14.888Z,24
2017-08-17T11:35:22.981Z,28
2017-08-17T11:36:31.063Z,24
2017-08-17T11:37:39.160Z,24
2017-08-17T11:38:47.242Z,28
2017-08-17T11:39:55.331Z,28
2017-08-17T11:41:03.426Z,24
2017-08-17T11:42:11.510Z,28
2017-08-17T11:43:19.609Z,20
2017-08-17T11:44:27.695Z,24
2017-08-17T11:45:35.808Z,24
2017-08-17T11:46:43.881Z,28
2017-08-17T11:47:51.965Z,28
2017-08-17T11:49:00.061Z,32
2017-08-17T11:50:08.143Z,28
2017-08-17T11:51:16.235Z,32
2017-08-17T11:52:24.323Z,28
2017-08-17T11:53:32.413Z,16
2017-08-17T11:54:40.501Z,16
2017-08-17T11:55:48.597Z,16
2017-08-17T11:56:56.679Z,16
2017-08-17T11:58:04.776Z,12
2017-08-17T11:59:12.874Z,12
2017-08-17T12:00:20.956Z,16
2017-08-17T12:01:29.062Z,28
2017-08-17T12:02:37.131Z,32
2017-08-17T12:03:45.221Z,28
2017-08-17T12:04:53.318Z,24
2017-08-17T12:06:01.411Z,32
2017-08-17T12:07:09.497Z,24
2017-08-17T12:08:17.587Z,32
2017-08-17T12:09:25.686Z,28
2017-08-17T12:10:33.775Z,24
2017-08-17T12:11:41.873Z,28
2017-08-17T12:12:49.960Z,20
2017-08-17T12:13:58.043Z,32
2017-08-17T12:15:06.142Z,28
2017-08-17T12:16:14.228Z,28
2017-08-17T12:17:22.313Z,28
2017-08-17T12:18:30.398Z,28
2017-08-17T12:19:38.488Z,28
2017-08-17T12:20:46.579Z,28
2017-08-17T12:21:54.667Z,28
2017-08-17T12:23:02.757Z,24
2017-08-17T12:24:10.845Z,24
2017-08-17T12:25:18.935Z,28
2017-08-17T12:26:27.034Z,28
2017-08-17T12:27:35.116Z,24
2017-08-17T12:28:43.202Z,24
2017-08-17T12:29:51.293Z,24
2017-08-17T12:30:59.381Z,24
2017-08-17T12:32:07.476Z,24
2017-08-17T12:33:15.574Z,24
2017-08-17T12:34:23.658Z,20
2017-08-17T12:35:31.745Z,20
2017-08-17T12:36:39.834Z,24
2017-08-17T12:37:47.937Z,28
2017-08-17T12:38:56.015Z,28
2017-08-17T12:40:04.106Z,20
2017-08-17T12:41:12.193Z,20
2017-08-17T12:42:20.284Z,12
2017-08-17T12:43:28.382Z,20
2017-08-17T12:44:36.467Z,24
2017-08-17T12:45:44.554Z,20
2017-08-17T12:46:52.641Z,16
2017-08-17T12:48:00.730Z,20
2017-08-17T12:49:08.820Z,16
2017-08-17T12:50:16.910Z,20
2017-08-17T12:51:25.007Z,20
2017-08-17T12:52:33.090Z,20
2017-08-17T12:53:41.306Z,12
2017-08-17T12:54:49.268Z,12
2017-08-17T12:55:57.356Z,20
2017-08-17T12:57:05.490Z,16
2017-08-17T12:58:13.533Z,16
2017-08-17T12:59:21.636Z,20
2017-08-17T13:00:29.716Z,24
2017-08-17T13:01:37.805Z,24
2017-08-17T13:02:45.922Z,24
2017-08-17T13:03:53.984Z,12
2017-08-17T13:05:02.072Z,16
2017-08-17T13:06:10.161Z,12
2017-08-17T13:07:18.254Z,16
2017-08-17T13:08:26.344Z,12
2017-08-17T13:09:34.432Z,12
2017-08-17T13:10:42.524Z,16
2017-08-17T13:11:50.613Z,12
2017-08-17T13:12:58.701Z,16
2017-08-17T13:14:06.791Z,12
2017-08-17T13:15:14.892Z,12
2017-08-17T13:16:22.978Z,12
2017-08-17T13:17:31.123Z,12
2017-08-17T13:18:39.158Z,16
2017-08-17T13:19:47.248Z,16
2017-08-17T13:20:55.336Z,16
2017-08-17T13:22:03.425Z,16
2017-08-17T13:23:11.515Z,16
2017-08-17T13:24:19.603Z,16
2017-08-17T13:25:27.697Z,16
2017-08-17T13:26:35.782Z,16
2017-08-17T13:27:43.893Z,12
2017-08-17T13:28:51.968Z,12
2017-08-17T13:30:00.053Z,16
2017-08-17T13:31:08.141Z,16
2017-08-17T13:32:16.232Z,16
2017-08-17T13:33:24.320Z,16
2017-08-17T13:34:32.409Z,16
2017-08-17T13:35:40.497Z,16
2017-08-17T13:36:48.588Z,20
2017-08-17T13:37:56.683Z,16
2017-08-17T13:39:04.771Z,16
2017-08-17T13:40:12.867Z,16
2017-08-17T13:41:20.949Z,16
2017-08-17T13:42:29.060Z,16
2017-08-17T13:43:37.129Z,16
2017-08-17T13:44:45.218Z,16
2017-08-17T13:45:53.308Z,12
2017-08-17T13:47:01.399Z,16
2017-08-17T13:48:09.487Z,16
2017-08-17T13:49:17.577Z,12
2017-08-17T13:50:25.666Z,12
2017-08-17T13:51:33.756Z,16
2017-08-17T13:52:41.866Z,16
2017-08-17T13:53:49.937Z,16
2017-08-17T13:54:58.025Z,16
2017-08-17T13:56:06.114Z,16
2017-08-17T13:57:14.202Z,16
2017-08-17T13:58:22.311Z,12
2017-08-17T13:59:30.383Z,16
2017-08-17T14:00:38.475Z,12
2017-08-17T14:01:46.561Z,12
2017-08-17T14:02:54.690Z,16
2017-08-17T14:04:02.741Z,12
2017-08-17T14:05:10.841Z,12
2017-08-17T14:06:18.929Z,16
2017-08-17T14:07:27.011Z,12
2017-08-17T14:08:35.110Z,12
2017-08-17T14:09:43.192Z,12
2017-08-17T14:10:51.283Z,12
2017-08-17T14:11:59.368Z,12
2017-08-17T14:13:07.457Z,12
2017-08-17T14:14:15.556Z,12
2017-08-17T14:15:23.646Z,12
2017-08-17T14:16:31.736Z,8
2017-08-17T14:17:39.826Z,8
2017-08-17T14:18:47.914Z,8
2017-08-17T14:19:56.009Z,12
2017-08-17T14:21:04.093Z,16
2017-08-17T14:22:12.183Z,12
2017-08-17T14:23:20.273Z,12
2017-08-17T14:24:28.365Z,12
2017-08-17T14:25:36.452Z,12
2017-08-17T14:26:44.543Z,16
2017-08-17T14:27:52.633Z,12
2017-08-17T14:29:00.719Z,12
2017-08-17T14:30:08.814Z,12
2017-08-17T14:31:16.899Z,12
2017-08-17T14:32:24.989Z,12
2017-08-17T14:33:33.079Z,12
2017-08-17T14:34:41.171Z,16
2017-08-17T14:35:49.259Z,12
2017-08-17T14:36:57.349Z,16
2017-08-17T14:38:05.439Z,12
2017-08-17T14:39:13.528Z,12
2017-08-17T14:40:21.616Z,12
2017-08-17T14:41:29.706Z,12
2017-08-17T14:42:37.795Z,12
2017-08-17T14:43:45.892Z,12
2017-08-17T14:44:53.976Z,8
2017-08-17T14:46:02.065Z,8
2017-08-17T14:47:10.156Z,12
2017-08-17T14:48:18.244Z,8
2017-08-17T14:49:26.339Z,8
2017-08-17T14:50:34.430Z,12
2017-08-17T14:51:42.511Z,8
2017-08-17T14:52:50.611Z,8
2017-08-17T14:53:58.703Z,8
2017-08-17T14:55:06.814Z,8
2017-08-17T14:56:14.881Z,8
2017-08-17T14:57:22.977Z,8
2017-08-17T14:58:31.066Z,8
2017-08-17T14:59:39.173Z,12
2017-08-17T15:00:47.256Z,12
2017-08-17T15:01:55.374Z,16
2017-08-17T15:03:03.435Z,12
2017-08-17T15:04:11.525Z,16
2017-08-17T15:05:19.613Z,16
2017-08-17T15:06:27.703Z,16
2017-08-17T15:07:35.793Z,16
2017-08-17T15:08:43.905Z,12
2017-08-17T15:09:51.979Z,16
2017-08-17T15:11:00.064Z,16
2017-08-17T15:12:08.151Z,16
2017-08-17T15:13:16.266Z,12
2017-08-17T15:14:24.331Z,8
2017-08-17T15:15:32.421Z,8
2017-08-17T15:16:40.512Z,12
2017-08-17T15:17:48.599Z,4
2017-08-17T15:18:56.696Z,12
2017-08-17T15:20:04.779Z,8
2017-08-17T15:21:12.870Z,4
2017-08-17T15:22:20.958Z,4
2017-08-17T15:23:29.048Z,4
2017-08-17T15:24:37.137Z,8
2017-08-17T15:25:45.230Z,8
2017-08-17T15:26:53.315Z,4
2017-08-17T15:28:01.453Z,8
2017-08-17T15:29:09.494Z,8
2017-08-17T15:30:17.584Z,8
2017-08-17T15:31:25.675Z,8
2017-08-17T15:32:33.766Z,8
2017-08-17T15:33:41.856Z,12
2017-08-17T15:34:49.943Z,12
2017-08-17T15:35:58.038Z,12
2017-08-17T15:37:06.124Z,8
2017-08-17T15:38:14.213Z,12
2017-08-17T15:39:22.307Z,12
2017-08-17T15:40:30.394Z,8
2017-08-17T15:41:38.484Z,8
2017-08-17T15:42:46.574Z,12
2017-08-17T15:43:54.664Z,8
2017-08-17T15:45:02.756Z,8
2017-08-17T15:46:10.844Z,12
2017-08-17T15:47:18.971Z,12
2017-08-17T15:48:27.034Z,8
2017-08-17T15:49:35.112Z,8
2017-08-17T15:50:43.202Z,8
2017-08-17T15:51:51.297Z,8
2017-08-17T15:52:59.382Z,8
2017-08-17T15:54:07.468Z,8
2017-08-17T15:55:15.559Z,8
2017-08-17T15:56:23.649Z,8
2017-08-17T15:57:31.753Z,8
2017-08-17T15:58:39.828Z,8
2017-08-17T15:59:47.943Z,8
2017-08-17T16:00:56.035Z,8
2017-08-17T16:02:04.100Z,4
2017-08-17T16:03:12.199Z,4
2017-08-17T16:04:20.290Z,8
2017-08-17T16:05:28.377Z,4
2017-08-17T16:06:36.476Z,4
2017-08-17T16:07:44.566Z,4
2017-08-17T16:08:52.659Z,4
2017-08-17T16:10:00.744Z,4
2017-08-17T16:11:08.833Z,4
2017-08-17T16:12:16.927Z,4
2017-08-17T16:13:25.013Z,4
2017-08-17T16:14:33.102Z,4
2017-08-17T16:15:41.191Z,4
2017-08-17T16:16:49.289Z,4
2017-08-17T16:17:57.377Z,8
2017-08-17T16:19:05.474Z,4
2017-08-17T16:20:13.554Z,4
2017-08-17T16:21:21.642Z,4
2017-08-17T16:22:29.735Z,4
2017-08-17T16:23:37.848Z,4
2017-08-17T16:24:45.923Z,4
2017-08-17T16:25:54.002Z,4
2017-08-17T16:27:02.092Z,8
2017-08-17T16:28:10.182Z,8
2017-08-17T16:29:18.271Z,8
2017-08-17T16:30:26.464Z,8